createdAt,value
2023-03-19T00:00:27.147Z,100697.06
2023-03-19T00:02:53.602Z,100709.59
2023-03-19T00:05:20.353Z,100711.75
2023-03-19T00:07:46.761Z,100704.13
2023-03-19T00:10:13.297Z,100703.63
2023-03-19T00:12:39.754Z,100704.44
2023-03-19T00:15:08.893Z,100709.59
2023-03-19T00:17:35.881Z,100706.31
2023-03-19T00:20:02.541Z,100705.19
2023-03-19T00:22:28.897Z,100707.91
2023-03-19T00:24:55.375Z,100706.25
2023-03-19T00:27:21.743Z,100704.59
2023-03-19T00:29:48.089Z,100708.09
2023-03-19T00:32:14.672Z,100701.28
2023-03-19T00:34:41.817Z,100700.72
2023-03-19T00:37:08.902Z,100702.88
2023-03-19T00:39:35.421Z,100698.56
2023-03-19T00:42:02.037Z,100702.66
2023-03-19T00:44:28.463Z,100707.59
2023-03-19T00:46:54.913Z,100708.44
2023-03-19T00:49:21.279Z,100693.72
2023-03-19T00:51:47.759Z,100693.72
2023-03-19T00:54:14.286Z,100698.13
2023-03-19T00:56:41.082Z,100700.78
2023-03-19T00:59:07.758Z,100707.91
2023-03-19T01:01:34.665Z,100704.59
2023-03-19T01:04:01.428Z,100704.59
2023-03-19T01:06:28.025Z,100704.06
2023-03-19T01:08:54.384Z,100704.88
2023-03-19T01:11:20.937Z,100700.72
2023-03-19T01:13:47.965Z,100701.22
2023-03-19T01:16:14.419Z,100694.47
2023-03-19T01:18:41.135Z,100698.00
2023-03-19T01:21:08.249Z,100703.19
2023-03-19T01:23:34.642Z,100701.22
2023-03-19T01:26:01.108Z,100702.81
2023-03-19T01:28:27.520Z,100704.69
2023-03-19T01:30:58.745Z,100710.91
2023-03-19T01:33:25.783Z,100705.41
2023-03-19T01:35:52.175Z,100701.47
2023-03-19T01:38:19.642Z,100706.84
2023-03-19T01:40:47.479Z,100702.13
2023-03-19T01:43:18.462Z,100704.50
2023-03-19T01:45:45.883Z,100707.44
2023-03-19T01:48:33.056Z,100699.03
2023-03-19T01:51:00.801Z,100697.81
2023-03-19T01:53:31.621Z,100693.97
2023-03-19T01:56:11.566Z,100699.09
2023-03-19T01:58:40.087Z,100697.97
2023-03-19T02:01:06.486Z,100698.22
2023-03-19T02:03:33.940Z,100701.94
2023-03-19T02:06:00.978Z,100693.44
2023-03-19T02:08:28.790Z,100696.88
2023-03-19T02:11:00.045Z,100694.63
2023-03-19T02:13:27.800Z,100689.72
2023-03-19T02:15:55.045Z,100699.44
2023-03-19T02:18:21.924Z,100702.09
2023-03-19T02:20:56.917Z,100695.50
2023-03-19T02:24:02.336Z,100702.78
2023-03-19T02:26:30.786Z,100698.47
2023-03-19T02:28:57.134Z,100695.00
2023-03-19T02:31:23.765Z,100696.97
2023-03-19T02:34:11.971Z,100699.50
2023-03-19T02:36:44.240Z,100693.00
2023-03-19T02:39:21.469Z,100695.75
2023-03-19T02:41:48.921Z,100696.88
2023-03-19T02:44:19.804Z,100690.06
2023-03-19T02:46:46.441Z,100684.44
2023-03-19T02:49:13.100Z,100692.09
2023-03-19T02:51:39.534Z,100689.72
2023-03-19T02:54:06.216Z,100700.44
2023-03-19T02:56:32.726Z,100700.44
2023-03-19T02:58:59.212Z,100692.31
2023-03-19T03:01:25.869Z,100701.34
2023-03-19T03:03:52.276Z,100696.78
2023-03-19T03:06:18.707Z,100701.34
2023-03-19T03:08:45.392Z,100695.72
2023-03-19T03:11:11.781Z,100704.97
2023-03-19T03:13:38.218Z,100696.59
2023-03-19T03:16:04.872Z,100699.63
2023-03-19T03:18:31.326Z,100695.31
2023-03-19T03:20:57.982Z,100689.38
2023-03-19T03:23:24.390Z,100689.38
2023-03-19T03:25:52.021Z,100698.94
2023-03-19T03:28:19.271Z,100694.28
2023-03-19T03:30:46.605Z,100700.94
2023-03-19T03:33:13.103Z,100705.81
2023-03-19T03:35:39.679Z,100711.81
2023-03-19T03:38:06.669Z,100715.97
2023-03-19T03:40:34.471Z,100721.19
2023-03-19T03:43:01.270Z,100708.13
2023-03-19T03:45:27.693Z,100714.13
2023-03-19T03:47:54.204Z,100715.25
2023-03-19T03:50:20.819Z,100709.84
2023-03-19T03:52:47.850Z,100717.47
2023-03-19T03:55:14.390Z,100721.88
2023-03-19T03:57:40.915Z,100726.75
2023-03-19T04:00:08.057Z,100722.38
2023-03-19T04:02:34.513Z,100731.66
2023-03-19T04:05:01.043Z,100732.69
2023-03-19T04:07:27.933Z,100734.88
2023-03-19T04:09:55.196Z,100729.72
2023-03-19T04:12:21.815Z,100730.53
2023-03-19T04:14:48.324Z,100722.31
2023-03-19T04:17:14.668Z,100729.16
2023-03-19T04:19:41.145Z,100733.81
2023-03-19T04:22:08.419Z,100738.75
2023-03-19T04:24:35.087Z,100730.03
2023-03-19T04:27:01.510Z,100734.94
2023-03-19T04:29:27.890Z,100738.22
2023-03-19T04:31:54.314Z,100739.28
2023-03-19T04:34:20.958Z,100737.03
2023-03-19T04:36:47.362Z,100735.38
2023-03-19T04:39:13.670Z,100737.53
2023-03-19T04:41:40.160Z,100733.44
2023-03-19T04:44:07.603Z,100733.91
2023-03-19T04:46:34.079Z,100742.28
2023-03-19T04:49:00.472Z,100751.50
2023-03-19T04:51:27.311Z,100751.50
2023-03-19T04:53:53.703Z,100752.63
2023-03-19T04:56:20.256Z,100755.44
2023-03-19T04:58:46.657Z,100764.97
2023-03-19T05:01:13.465Z,100745.84
2023-03-19T05:03:40.002Z,100753.91
2023-03-19T05:06:06.779Z,100765.38
2023-03-19T05:08:33.117Z,100759.47
2023-03-19T05:10:59.472Z,100756.81
2023-03-19T05:13:25.840Z,100767.38
2023-03-19T05:15:54.978Z,100764.06
2023-03-19T05:18:21.522Z,100767.84
2023-03-19T05:20:48.255Z,100762.94
2023-03-19T05:23:14.786Z,100771.13
2023-03-19T05:25:41.467Z,100766.50
2023-03-19T05:28:08.218Z,100768.16
2023-03-19T05:30:35.599Z,100773.38
2023-03-19T05:33:03.815Z,100779.47
2023-03-19T05:35:30.812Z,100774.03
2023-03-19T05:37:57.857Z,100772.97
2023-03-19T05:40:24.936Z,100787.66
2023-03-19T05:42:51.454Z,100781.06
2023-03-19T05:45:18.205Z,100784.28
2023-03-19T05:47:47.309Z,100775.03
2023-03-19T05:50:13.914Z,100776.34
2023-03-19T05:52:40.318Z,100780.41
2023-03-19T05:55:07.066Z,100787.56
2023-03-19T05:57:33.400Z,100794.69
2023-03-19T05:59:59.756Z,100793.56
2023-03-19T06:02:26.170Z,100801.75
2023-03-19T06:04:52.663Z,100801.75
2023-03-19T06:07:19.040Z,100797.94
2023-03-19T06:09:45.418Z,100797.88
2023-03-19T06:12:11.922Z,100799.28
2023-03-19T06:14:38.239Z,100805.81
2023-03-19T06:17:04.605Z,100810.44
2023-03-19T06:19:31.028Z,100805.56
2023-03-19T06:21:57.510Z,100807.75
2023-03-19T06:24:23.921Z,100818.72
2023-03-19T06:26:50.244Z,100819.28
2023-03-19T06:29:16.607Z,100821.94
2023-03-19T06:31:43.031Z,100821.94
2023-03-19T06:34:09.536Z,100825.78
2023-03-19T06:36:35.875Z,100814.88
2023-03-19T06:39:03.081Z,100816.53
2023-03-19T06:41:29.775Z,100821.22
2023-03-19T06:43:56.182Z,100821.53
2023-03-19T06:46:23.205Z,100828.94
2023-03-19T06:48:49.719Z,100824.25
2023-03-19T06:51:16.217Z,100832.38
2023-03-19T06:53:42.581Z,100833.50
2023-03-19T06:56:10.248Z,100832.94
2023-03-19T06:58:36.942Z,100829.69
2023-03-19T07:01:03.887Z,100833.56
2023-03-19T07:03:30.634Z,100837.69
2023-03-19T07:05:57.076Z,100834.09
2023-03-19T07:08:23.615Z,100846.13
2023-03-19T07:10:50.093Z,100842.66
2023-03-19T07:13:16.426Z,100851.59
2023-03-19T07:15:42.804Z,100856.53
2023-03-19T07:18:09.244Z,100861.91
2023-03-19T07:20:36.246Z,100871.75
2023-03-19T07:23:03.255Z,100859.72
2023-03-19T07:25:29.701Z,100864.13
2023-03-19T07:27:56.270Z,100866.06
2023-03-19T07:30:22.726Z,100871.53
2023-03-19T07:32:49.138Z,100870.16
2023-03-19T07:35:15.551Z,100872.31
2023-03-19T07:37:42.133Z,100873.91
2023-03-19T07:40:09.875Z,100878.56
2023-03-19T07:42:36.507Z,100881.91
2023-03-19T07:45:04.440Z,100879.94
2023-03-19T07:47:30.876Z,100884.34
2023-03-19T07:49:58.034Z,100883.88
2023-03-19T07:52:25.862Z,100875.13
2023-03-19T07:54:52.938Z,100874.34
2023-03-19T07:57:19.758Z,100876.56
2023-03-19T07:59:46.466Z,100882.84
2023-03-19T08:02:13.251Z,100876.88
2023-03-19T08:04:40.142Z,100883.16
2023-03-19T08:07:06.863Z,100882.41
2023-03-19T08:09:34.044Z,100880.88
2023-03-19T08:12:00.387Z,100880.34
2023-03-19T08:14:26.847Z,100875.47
2023-03-19T08:16:53.278Z,100883.63
2023-03-19T08:19:19.664Z,100884.81
2023-03-19T08:21:46.492Z,100888.16
2023-03-19T08:24:12.912Z,100891.94
2023-03-19T08:26:39.358Z,100894.44
2023-03-19T08:29:06.492Z,100888.59
2023-03-19T08:31:33.030Z,100888.94
2023-03-19T08:34:10.234Z,100895.22
2023-03-19T08:36:37.087Z,100890.56
2023-03-19T08:39:04.190Z,100900.97
2023-03-19T08:41:31.172Z,100897.13
2023-03-19T08:43:57.501Z,100900.97
2023-03-19T08:46:23.844Z,100902.59
2023-03-19T08:48:50.278Z,100907.47
2023-03-19T08:51:16.631Z,100907.28
2023-03-19T08:53:43.027Z,100914.31
2023-03-19T08:56:09.369Z,100910.28
2023-03-19T08:58:35.946Z,100912.50
2023-03-19T09:01:05.128Z,100918.56
2023-03-19T09:03:32.201Z,100906.59
2023-03-19T09:06:01.130Z,100911.56
2023-03-19T09:08:28.632Z,100908.56
2023-03-19T09:10:56.162Z,100909.69
2023-03-19T09:13:23.276Z,100908.34
2023-03-19T09:15:50.716Z,100909.44
2023-03-19T09:18:18.229Z,100908.66
2023-03-19T09:20:45.245Z,100911.44
2023-03-19T09:23:11.717Z,100914.16
2023-03-19T09:25:38.086Z,100918.84
2023-03-19T09:28:04.681Z,100924.31
2023-03-19T09:30:31.786Z,100922.13
2023-03-19T09:32:58.324Z,100920.56
2023-03-19T09:35:24.943Z,100918.34
2023-03-19T09:37:52.127Z,100920.88
2023-03-19T09:40:33.652Z,100916.31
2023-03-19T09:43:33.480Z,100925.63
2023-03-19T09:46:03.366Z,100918.44
2023-03-19T09:48:46.887Z,100935.69
2023-03-19T09:51:26.000Z,100935.38
2023-03-19T09:54:02.773Z,100936.50
2023-03-19T09:56:30.507Z,100936.78
2023-03-19T09:58:56.918Z,100935.94
2023-03-19T10:01:47.425Z,100936.50
2023-03-19T10:04:37.408Z,100941.34
2023-03-19T10:07:18.846Z,100937.22
2023-03-19T10:10:18.321Z,100942.41
2023-03-19T10:12:53.944Z,100944.31
2023-03-19T10:15:31.028Z,100945.97
2023-03-19T10:18:02.693Z,100942.94
2023-03-19T10:20:35.411Z,100943.53
2023-03-19T10:23:37.470Z,100934.25
2023-03-19T10:26:08.726Z,100941.16
2023-03-19T10:28:36.372Z,100950.44
2023-03-19T10:31:25.863Z,100943.00
2023-03-19T10:34:07.710Z,100946.81
2023-03-19T10:36:36.169Z,100948.16
2023-03-19T10:39:06.905Z,100954.72
2023-03-19T10:41:56.566Z,100947.38
2023-03-19T10:44:34.417Z,100945.41
2023-03-19T10:47:11.811Z,100942.69
2023-03-19T10:49:38.308Z,100941.34
2023-03-19T10:52:06.032Z,100945.97
2023-03-19T10:54:32.382Z,100951.69
2023-03-19T10:57:00.359Z,100949.81
2023-03-19T10:59:29.699Z,100952.22
2023-03-19T11:02:17.736Z,100950.84
2023-03-19T11:04:44.299Z,100956.00
2023-03-19T11:07:14.136Z,100960.38
2023-03-19T11:09:44.151Z,100952.22
2023-03-19T11:12:18.804Z,100957.69
2023-03-19T11:14:53.898Z,100952.84
2023-03-19T11:17:27.482Z,100951.84
2023-03-19T11:19:59.104Z,100954.06
2023-03-19T11:22:28.466Z,100949.13
2023-03-19T11:25:02.322Z,100951.59
2023-03-19T11:27:35.111Z,100951.59
2023-03-19T11:30:03.979Z,100948.63
2023-03-19T11:32:46.622Z,100939.34
2023-03-19T11:35:19.854Z,100941.53
2023-03-19T11:37:51.912Z,100941.50
2023-03-19T11:40:34.109Z,100940.44
2023-03-19T11:43:11.774Z,100946.97
2023-03-19T11:45:56.686Z,100949.16
2023-03-19T11:49:00.737Z,100942.31
2023-03-19T11:51:40.204Z,100945.88
2023-03-19T11:54:25.293Z,100942.88
2023-03-19T11:57:00.271Z,100940.41
2023-03-19T11:59:56.261Z,100936.31
2023-03-19T12:02:32.372Z,100943.44
2023-03-19T12:05:01.759Z,100937.69
2023-03-19T12:08:20.031Z,100937.41
2023-03-19T12:10:59.062Z,100939.06
2023-03-19T12:13:34.634Z,100937.41
2023-03-19T12:16:19.903Z,100934.59
2023-03-19T12:18:59.769Z,100931.53
2023-03-19T12:21:34.943Z,100926.47
2023-03-19T12:24:15.146Z,100937.25
2023-03-19T12:27:04.286Z,100934.78
2023-03-19T12:30:18.211Z,100927.22
2023-03-19T12:33:03.305Z,100920.81
2023-03-19T12:35:37.566Z,100933.50
2023-03-19T12:38:25.447Z,100924.84
2023-03-19T12:41:07.757Z,100919.78
2023-03-19T12:43:54.353Z,100901.22
2023-03-19T12:46:30.026Z,100917.00
2023-03-19T12:49:14.230Z,100915.69
2023-03-19T12:51:46.171Z,100919.88
2023-03-19T12:54:23.683Z,100921.22
2023-03-19T12:57:18.083Z,100921.38
2023-03-19T13:00:07.050Z,100921.53
2023-03-19T13:02:54.468Z,100923.81
2023-03-19T13:05:52.989Z,100922.97
2023-03-19T13:08:33.369Z,100920.81
2023-03-19T13:11:02.763Z,100917.00
2023-03-19T13:14:02.089Z,100924.69
2023-03-19T13:17:13.529Z,100918.44
2023-03-19T13:19:53.969Z,100914.59
2023-03-19T13:22:32.789Z,100920.13
2023-03-19T13:25:01.656Z,100916.16
2023-03-19T13:27:34.004Z,100910.47
2023-03-19T13:30:07.864Z,100915.94
2023-03-19T13:32:47.894Z,100914.69
2023-03-19T13:35:28.541Z,100914.56
2023-03-19T13:38:00.117Z,100904.91
2023-03-19T13:40:38.244Z,100909.88
2023-03-19T13:43:04.708Z,100915.75
2023-03-19T13:45:38.266Z,100906.19
2023-03-19T13:48:35.993Z,100910.91
2023-03-19T13:51:27.214Z,100909.34
2023-03-19T13:54:16.344Z,100906.16
2023-03-19T13:57:05.806Z,100906.72
2023-03-19T13:59:37.703Z,100905.72
2023-03-19T14:02:24.158Z,100911.75
2023-03-19T14:04:57.284Z,100906.34
2023-03-19T14:07:42.319Z,100910.69
2023-03-19T14:10:31.711Z,100902.41
2023-03-19T14:13:06.967Z,100903.19
2023-03-19T14:15:35.241Z,100894.91
2023-03-19T14:18:05.790Z,100900.72
2023-03-19T14:20:40.509Z,100899.00
2023-03-19T14:23:17.879Z,100906.63
2023-03-19T14:26:12.364Z,100907.47
2023-03-19T14:28:44.715Z,100901.06
2023-03-19T14:31:35.190Z,100901.06
2023-03-19T14:34:16.579Z,100899.81
2023-03-19T14:36:48.909Z,100897.91
2023-03-19T14:39:27.899Z,100900.06
2023-03-19T14:42:24.461Z,100895.50
2023-03-19T14:45:14.269Z,100902.16
2023-03-19T14:47:55.500Z,100897.34
2023-03-19T14:50:26.172Z,100901.88
2023-03-19T14:52:58.278Z,100911.69
2023-03-19T14:55:34.323Z,100907.72
2023-03-19T14:58:02.067Z,100913.16
2023-03-19T15:00:28.706Z,100917.72
2023-03-19T15:02:56.114Z,100921.56
2023-03-19T15:05:27.602Z,100923.19
2023-03-19T15:08:12.265Z,100922.75
2023-03-19T15:10:54.954Z,100932.13
2023-03-19T15:13:30.521Z,100935.44
2023-03-19T15:16:20.206Z,100940.44
2023-03-19T15:18:46.663Z,100945.38
2023-03-19T15:21:13.106Z,100956.84
2023-03-19T15:23:41.699Z,100954.09
2023-03-19T15:26:11.637Z,100959.59
2023-03-19T15:28:54.011Z,100953.03
2023-03-19T15:31:38.363Z,100950.28
2023-03-19T15:34:27.859Z,100954.38
2023-03-19T15:37:07.905Z,100966.16
2023-03-19T15:39:41.722Z,100963.94
2023-03-19T15:42:08.619Z,100977.66
2023-03-19T15:44:58.217Z,100972.69
2023-03-19T15:47:29.830Z,100964.47
2023-03-19T15:50:01.784Z,100972.91
2023-03-19T15:52:33.460Z,100975.38
2023-03-19T15:55:02.232Z,100977.38
2023-03-19T15:57:29.150Z,100983.34
2023-03-19T15:59:59.007Z,100984.59
2023-03-19T16:02:33.569Z,100987.88
2023-03-19T16:05:21.055Z,100989.75
2023-03-19T16:07:54.829Z,100986.53
2023-03-19T16:10:31.382Z,100993.34
2023-03-19T16:13:03.766Z,100997.50
2023-03-19T16:15:40.492Z,101001.84
2023-03-19T16:18:23.143Z,101006.31
2023-03-19T16:21:07.203Z,101007.66
2023-03-19T16:23:40.924Z,101018.56
2023-03-19T16:26:23.076Z,101026.69
2023-03-19T16:29:00.193Z,101027.91
2023-03-19T16:31:31.847Z,101039.09
2023-03-19T16:33:58.345Z,101042.69
2023-03-19T16:36:29.968Z,101038.66
2023-03-19T16:39:24.327Z,101046.28
2023-03-19T16:42:10.953Z,101057.22
2023-03-19T16:44:42.094Z,101055.28
2023-03-19T16:47:11.042Z,101045.47
2023-03-19T16:49:37.493Z,101050.38
2023-03-19T16:52:05.288Z,101046.84
2023-03-19T16:54:31.843Z,101047.84
2023-03-19T16:56:58.238Z,101041.06
2023-03-19T16:59:29.148Z,101044.66
2023-03-19T17:01:55.822Z,101043.81
2023-03-19T17:04:23.733Z,101045.19
2023-03-19T17:06:50.602Z,101045.34
2023-03-19T17:09:16.986Z,101043.38
2023-03-19T17:11:43.977Z,101041.06
2023-03-19T17:14:18.424Z,101034.00
2023-03-19T17:16:50.357Z,101041.44
2023-03-19T17:19:34.405Z,101044.16
2023-03-19T17:22:01.796Z,101042.13
2023-03-19T17:24:37.366Z,101051.66
2023-03-19T17:27:04.458Z,101045.56
2023-03-19T17:29:31.615Z,101056.84
2023-03-19T17:32:01.788Z,101067.88
2023-03-19T17:34:32.947Z,101076.59
2023-03-19T17:37:01.412Z,101080.47
2023-03-19T17:39:31.937Z,101083.75
2023-03-19T17:41:59.139Z,101084.81
2023-03-19T17:44:25.821Z,101087.50
2023-03-19T17:46:54.118Z,101099.53
2023-03-19T17:49:28.960Z,101102.78
2023-03-19T17:51:56.377Z,101103.88
2023-03-19T17:54:22.756Z,101100.56
2023-03-19T17:56:49.516Z,101107.66
2023-03-19T17:59:15.866Z,101113.44
2023-03-19T18:01:47.009Z,101115.34
2023-03-19T18:04:16.122Z,101121.28
2023-03-19T18:06:46.408Z,101116.94
2023-03-19T18:09:22.230Z,101121.66
2023-03-19T18:11:48.732Z,101121.88
2023-03-19T18:14:15.563Z,101122.69
2023-03-19T18:16:42.683Z,101124.91
2023-03-19T18:19:37.207Z,101129.25
2023-03-19T18:22:14.857Z,101128.97
2023-03-19T18:24:41.534Z,101132.78
2023-03-19T18:27:08.077Z,101133.88
2023-03-19T18:29:34.427Z,101137.78
2023-03-19T18:32:11.520Z,101139.91
2023-03-19T18:34:38.195Z,101145.34
2023-03-19T18:37:04.768Z,101143.63
2023-03-19T18:39:32.765Z,101146.34
2023-03-19T18:41:59.102Z,101154.28
2023-03-19T18:44:25.622Z,101170.31
2023-03-19T18:46:51.963Z,101158.28
2023-03-19T18:49:26.506Z,101164.06
2023-03-19T18:52:02.649Z,101172.44
2023-03-19T18:54:33.344Z,101168.53
2023-03-19T18:57:01.816Z,101171.28
2023-03-19T18:59:32.886Z,101171.34
2023-03-19T19:02:25.087Z,101178.72
2023-03-19T19:04:51.424Z,101177.28
2023-03-19T19:07:17.925Z,101182.81
2023-03-19T19:09:44.400Z,101186.66
2023-03-19T19:12:18.297Z,101188.03
2023-03-19T19:14:45.724Z,101193.66
2023-03-19T19:17:21.286Z,101185.41
2023-03-19T19:19:47.726Z,101192.75
2023-03-19T19:22:16.332Z,101184.25
2023-03-19T19:24:43.903Z,101184.00
2023-03-19T19:27:17.387Z,101188.38
2023-03-19T19:29:43.977Z,101188.06
2023-03-19T19:32:32.275Z,101194.22
2023-03-19T19:34:58.681Z,101193.88
2023-03-19T19:37:25.311Z,101194.91
2023-03-19T19:39:52.246Z,101202.66
2023-03-19T19:42:21.148Z,101208.97
2023-03-19T19:44:53.228Z,101214.13
2023-03-19T19:47:19.629Z,101211.94
2023-03-19T19:49:46.175Z,101215.97
2023-03-19T19:52:17.962Z,101224.66
2023-03-19T19:54:45.592Z,101226.28
2023-03-19T19:57:24.440Z,101236.88
2023-03-19T19:59:51.731Z,101233.75
2023-03-19T20:02:26.793Z,101240.84
2023-03-19T20:04:53.634Z,101248.44
2023-03-19T20:07:20.620Z,101246.31
2023-03-19T20:09:47.957Z,101247.44
2023-03-19T20:12:24.627Z,101248.50
2023-03-19T20:14:51.388Z,101259.75
2023-03-19T20:17:20.726Z,101257.34
2023-03-19T20:19:47.924Z,101251.66
2023-03-19T20:22:14.352Z,101264.88
2023-03-19T20:24:41.517Z,101267.75
2023-03-19T20:27:31.345Z,101269.09
2023-03-19T20:29:57.763Z,101274.53
2023-03-19T20:32:33.449Z,101273.69
2023-03-19T20:35:02.754Z,101278.22
2023-03-19T20:37:30.046Z,101284.28
2023-03-19T20:39:56.424Z,101290.91
2023-03-19T20:42:23.412Z,101284.28
2023-03-19T20:44:55.540Z,101294.09
2023-03-19T20:47:22.061Z,101299.78
2023-03-19T20:49:48.603Z,101297.63
2023-03-19T20:52:16.287Z,101300.69
2023-03-19T20:54:43.092Z,101290.91
2023-03-19T20:57:14.776Z,101298.06
2023-03-19T20:59:44.314Z,101311.69
2023-03-19T21:02:19.477Z,101310.59
2023-03-19T21:04:46.509Z,101308.41
2023-03-19T21:07:23.600Z,101311.69
2023-03-19T21:09:49.999Z,101308.97
2023-03-19T21:12:36.763Z,101322.59
2023-03-19T21:15:03.216Z,101325.72
2023-03-19T21:17:29.635Z,101322.31
2023-03-19T21:19:56.775Z,101325.78
2023-03-19T21:22:28.495Z,101329.34
2023-03-19T21:25:06.110Z,101337.41
2023-03-19T21:27:35.645Z,101330.81
2023-03-19T21:30:04.452Z,101329.06
2023-03-19T21:32:31.932Z,101330.44
2023-03-19T21:34:58.363Z,101336.75
2023-03-19T21:37:24.764Z,101331.78
2023-03-19T21:39:51.210Z,101335.09
2023-03-19T21:42:22.519Z,101334.59
2023-03-19T21:44:56.868Z,101336.75
2023-03-19T21:47:23.253Z,101337.56
2023-03-19T21:49:49.873Z,101333.81
2023-03-19T21:52:18.770Z,101336.94
2023-03-19T21:54:45.184Z,101341.31
2023-03-19T21:57:16.432Z,101341.31
2023-03-19T21:59:45.475Z,101330.31
2023-03-19T22:02:27.059Z,101331.97
2023-03-19T22:04:53.542Z,101342.75
2023-03-19T22:07:20.025Z,101335.75
2023-03-19T22:09:46.380Z,101341.44
2023-03-19T22:12:25.896Z,101336.84
2023-03-19T22:14:52.427Z,101343.13
2023-03-19T22:17:26.478Z,101353.25
2023-03-19T22:19:52.981Z,101357.66
2023-03-19T22:22:19.419Z,101361.78
2023-03-19T22:24:45.975Z,101363.81
2023-03-19T22:27:16.158Z,101367.84
2023-03-19T22:29:44.699Z,101370.56
2023-03-19T22:32:18.657Z,101380.28
2023-03-19T22:34:45.290Z,101381.25
2023-03-19T22:37:28.450Z,101381.72
2023-03-19T22:39:55.435Z,101382.06
2023-03-19T22:42:24.751Z,101377.56
2023-03-19T22:44:51.077Z,101381.84
2023-03-19T22:47:24.654Z,101380.31
2023-03-19T22:49:51.308Z,101381.53
2023-03-19T22:52:18.103Z,101384.59
2023-03-19T22:54:44.520Z,101381.88
2023-03-19T22:57:17.283Z,101387.09
2023-03-19T22:59:44.442Z,101393.00
2023-03-19T23:02:14.653Z,101393.84
2023-03-19T23:04:41.412Z,101396.22
2023-03-19T23:07:12.639Z,101402.94
2023-03-19T23:09:39.030Z,101403.41
2023-03-19T23:12:07.365Z,101398.69
2023-03-19T23:14:33.949Z,101403.53
2023-03-19T23:17:06.686Z,101400.09
2023-03-19T23:19:35.613Z,101403.75
2023-03-19T23:22:04.989Z,101406.94
2023-03-19T23:24:31.600Z,101408.38
2023-03-19T23:26:59.835Z,101415.66
2023-03-19T23:29:41.838Z,101412.84
2023-03-19T23:32:10.635Z,101422.03
2023-03-19T23:34:49.697Z,101418.75
2023-03-19T23:37:24.391Z,101423.72
2023-03-19T23:39:51.032Z,101428.91
2023-03-19T23:42:27.792Z,101432.09
2023-03-19T23:44:57.839Z,101435.16
2023-03-19T23:47:24.306Z,101439.63
2023-03-19T23:49:51.095Z,101440.56
2023-03-19T23:52:17.523Z,101442.69
2023-03-19T23:54:43.874Z,101439.00
2023-03-19T23:57:15.475Z,101449.38
2023-03-19T23:59:44.089Z,101445.25
